Time;durP1;ratioP1;P1;durP2;ratioP2;P2;SDS_P1;SDS_P2;PMS_P1;PMS_P2;Temp;Humidity;BMP_temperature;BMP_pressure;BME280_temperature;BME280_humidity;BME280_pressure;Samples;Min_cycle;Max_cycle;Signal;HPM_P1;HPM_P2
2023/09/27 00:02:21;;;;;;;1999.90;999.90;;;15.90;99.90;;;;;;5028761;28;20017;-76
2023/09/27 00:04:46;;;;;;;1999.90;999.90;;;15.90;99.90;;;;;;5027920;28;20061;-77
2023/09/27 00:07:12;;;;;;;1999.90;999.90;;;15.90;99.90;;;;;;5028107;28;20090;-77
2023/09/27 00:09:38;;;;;;;1999.90;999.90;;;15.90;99.90;;;;;;5027115;28;20037;-70
2023/09/27 00:12:05;;;;;;;1999.90;999.90;;;15.90;99.90;;;;;;5027940;28;20724;-70
2023/09/27 00:14:31;;;;;;;1999.90;999.90;;;15.90;99.90;;;;;;5028356;28;20021;-76
2023/09/27 00:16:58;;;;;;;1999.90;999.90;;;16.00;99.90;;;;;;5027311;28;20036;-77
2023/09/27 00:19:24;;;;;;;1999.90;999.90;;;16.00;99.90;;;;;;5025747;28;20029;-70
2023/09/27 00:21:50;;;;;;;1999.90;999.90;;;16.00;99.90;;;;;;5027652;28;20025;-70
2023/09/27 00:24:15;;;;;;;1999.90;999.90;;;16.00;99.90;;;;;;5027525;28;20694;-70
2023/09/27 00:26:41;;;;;;;1999.90;999.90;;;16.00;99.90;;;;;;5028573;28;20021;-77
2023/09/27 00:29:07;;;;;;;1999.90;999.90;;;16.00;99.90;;;;;;5018735;28;20115;-70
2023/09/27 00:31:32;;;;;;;1999.90;999.90;;;16.10;99.90;;;;;;5008187;28;20030;-77
2023/09/27 00:33:58;;;;;;;1999.90;999.90;;;16.00;99.90;;;;;;5010726;28;20041;-77
2023/09/27 00:36:24;;;;;;;1999.90;999.90;;;16.00;99.90;;;;;;5015893;28;20067;-70
2023/09/27 00:38:49;;;;;;;1999.90;999.90;;;16.00;99.90;;;;;;5007384;28;20850;-77
2023/09/27 00:41:15;;;;;;;1999.90;999.90;;;16.00;99.90;;;;;;5007289;28;20041;-77
2023/09/27 00:43:41;;;;;;;1999.90;999.90;;;16.00;99.90;;;;;;5007786;28;20848;-77
2023/09/27 00:46:07;;;;;;;1999.90;999.90;;;16.00;99.90;;;;;;5007427;28;20045;-77
2023/09/27 00:48:36;;;;;;;1999.90;999.90;;;16.10;99.90;;;;;;5020903;28;20107;-77
2023/09/27 00:51:03;;;;;;;1999.90;999.90;;;16.10;99.90;;;;;;5028125;28;20025;-70
2023/09/27 00:53:32;;;;;;;1999.90;999.90;;;16.10;99.90;;;;;;5027379;28;20871;-77
2023/09/27 00:55:58;;;;;;;1999.90;999.90;;;16.10;99.90;;;;;;5027942;28;20127;-76
2023/09/27 00:58:24;;;;;;;1999.90;999.90;;;16.00;99.90;;;;;;5027844;28;20117;-76
2023/09/27 01:00:51;;;;;;;1999.90;999.90;;;16.00;99.90;;;;;;5026434;28;20040;-76
2023/09/27 01:03:17;;;;;;;1999.90;999.90;;;15.90;99.90;;;;;;5027162;28;20765;-70
2023/09/27 01:05:44;;;;;;;1999.90;999.90;;;15.90;99.90;;;;;;5026937;28;20867;-77
2023/09/27 01:08:10;;;;;;;1999.90;999.90;;;15.90;99.90;;;;;;5027130;28;20674;-70
2023/09/27 01:10:36;;;;;;;1999.90;999.90;;;15.90;99.90;;;;;;5027747;28;20141;-77
2023/09/27 01:13:02;;;;;;;1999.90;999.90;;;15.90;99.90;;;;;;5029488;28;20063;-77
2023/09/27 01:15:28;;;;;;;1999.90;999.90;;;15.90;99.90;;;;;;5025212;28;20029;-70
2023/09/27 01:17:58;;;;;;;1999.90;999.90;;;15.90;99.90;;;;;;5027066;28;20071;-77
2023/09/27 01:20:25;;;;;;;1999.90;999.90;;;15.90;99.90;;;;;;5026903;28;20032;-77
2023/09/27 01:23:05;;;;;;;1999.90;999.90;;;15.90;99.90;;;;;;5027228;28;20045;-70
2023/09/27 01:25:31;;;;;;;1999.90;999.90;;;15.90;99.90;;;;;;5026900;28;20056;-77
2023/09/27 01:28:02;;;;;;;1999.90;999.90;;;15.90;99.90;;;;;;5028474;28;20033;-70
2023/09/27 01:30:32;;;;;;;1999.90;999.90;;;15.90;99.90;;;;;;5029866;28;20033;-77
2023/09/27 01:32:58;;;;;;;1999.90;999.90;;;15.90;99.90;;;;;;5029256;28;20157;-76
2023/09/27 01:35:24;;;;;;;1999.90;999.90;;;15.90;99.90;;;;;;5021586;28;20728;-70
2023/09/27 01:37:50;;;;;;;1999.90;999.90;;;15.90;99.90;;;;;;5011339;28;20076;-77
2023/09/27 01:40:17;;;;;;;1999.90;999.90;;;15.90;99.90;;;;;;5010672;28;20037;-70
2023/09/27 01:42:43;;;;;;;1999.90;999.90;;;15.90;99.90;;;;;;5012202;28;20027;-70
2023/09/27 01:45:12;;;;;;;1999.90;999.90;;;15.90;99.90;;;;;;5009945;28;20025;-70
2023/09/27 01:47:39;;;;;;;1999.90;999.90;;;15.80;99.90;;;;;;5016737;28;20033;-77
2023/09/27 01:50:07;;;;;;;1999.90;999.90;;;15.80;99.90;;;;;;5030479;28;20028;-77
2023/09/27 01:52:33;;;;;;;1999.90;999.90;;;15.70;99.90;;;;;;5030870;28;20029;-77
2023/09/27 01:54:58;;;;;;;1999.90;999.90;;;15.70;99.90;;;;;;5028948;28;20729;-77
2023/09/27 01:57:24;;;;;;;1999.90;999.90;;;15.70;99.90;;;;;;5029417;28;20029;-77
2023/09/27 01:59:50;;;;;;;1999.90;999.90;;;15.70;99.90;;;;;;5030221;28;20850;-77
2023/09/27 02:02:15;;;;;;;1999.90;999.90;;;15.60;99.90;;;;;;5031426;28;20021;-77
2023/09/27 02:04:41;;;;;;;1999.90;999.90;;;15.60;99.90;;;;;;5030440;28;20029;-70
2023/09/27 02:07:07;;;;;;;1999.90;999.90;;;15.50;99.90;;;;;;5029999;28;20824;-70
2023/09/27 02:09:32;;;;;;;1999.90;999.90;;;15.50;99.90;;;;;;5029942;28;20106;-77
2023/09/27 02:11:58;;;;;;;1999.90;999.90;;;15.40;99.90;;;;;;5030023;28;20887;-70
2023/09/27 02:14:24;;;;;;;1999.90;999.90;;;15.40;99.90;;;;;;5029953;28;20082;-70
2023/09/27 02:16:49;;;;;;;1999.90;999.90;;;15.40;99.90;;;;;;5029537;28;20207;-77
2023/09/27 02:19:15;;;;;;;1999.90;999.90;;;15.40;99.90;;;;;;5030233;28;20025;-70
2023/09/27 02:21:40;;;;;;;1999.90;999.90;;;15.40;99.90;;;;;;5030377;28;20083;-71
2023/09/27 02:24:07;;;;;;;1999.90;999.90;;;15.40;99.90;;;;;;5029721;28;20040;-77
2023/09/27 02:26:33;;;;;;;1999.90;999.90;;;15.40;99.90;;;;;;5029685;28;20029;-77
2023/09/27 02:29:00;;;;;;;1999.90;999.90;;;15.50;99.90;;;;;;5022462;28;20152;-70
2023/09/27 02:31:25;;;;;;;1999.90;999.90;;;15.50;99.90;;;;;;5010373;28;20107;-70
2023/09/27 02:33:51;;;;;;;1999.90;999.90;;;15.60;99.90;;;;;;5013567;28;20032;-70
2023/09/27 02:36:17;;;;;;;1999.90;999.90;;;15.70;99.90;;;;;;5018077;28;20037;-77
2023/09/27 02:38:43;;;;;;;1999.90;999.90;;;15.80;99.90;;;;;;5009879;28;20033;-70
2023/09/27 02:41:08;;;;;;;1999.90;999.90;;;15.70;99.90;;;;;;5009645;28;20030;-70
2023/09/27 02:43:34;;;;;;;1999.90;999.90;;;15.70;99.90;;;;;;5009172;28;20107;-77
2023/09/27 02:46:00;;;;;;;1999.90;999.90;;;15.70;99.90;;;;;;5010159;28;20067;-77
2023/09/27 02:48:26;;;;;;;1999.90;999.90;;;15.70;99.90;;;;;;5021898;28;20033;-70
2023/09/27 02:50:55;;;;;;;1999.90;999.90;;;15.70;99.90;;;;;;5029644;28;20886;-77
2023/09/27 02:53:21;;;;;;;1999.90;999.90;;;15.70;99.90;;;;;;5028384;28;20153;-77
2023/09/27 02:55:46;;;;;;;1999.90;999.90;;;15.70;99.90;;;;;;5029303;28;20797;-70
2023/09/27 02:58:12;;;;;;;1999.90;999.90;;;15.70;99.90;;;;;;5028298;28;20095;-70
2023/09/27 03:00:38;;;;;;;1999.90;999.90;;;15.70;99.90;;;;;;5028421;28;20110;-69
2023/09/27 03:03:03;;;;;;;1999.90;999.90;;;15.60;99.90;;;;;;5028870;28;20890;-77
2023/09/27 03:05:35;;;;;;;1999.90;999.90;;;15.50;99.90;;;;;;5028866;28;20035;-69
2023/09/27 03:08:00;;;;;;;1999.90;999.90;;;15.50;99.90;;;;;;5030315;28;20025;-77
2023/09/27 03:10:26;;;;;;;1999.90;999.90;;;15.40;99.90;;;;;;5029841;28;20113;-70
2023/09/27 03:12:54;;;;;;;1999.90;999.90;;;15.40;99.90;;;;;;5028797;28;20029;-70
2023/09/27 03:15:19;;;;;;;1999.90;999.90;;;15.40;99.90;;;;;;5028606;28;20033;-77
2023/09/27 03:17:47;;;;;;;1999.90;999.90;;;15.30;99.90;;;;;;5028710;28;20859;-77
2023/09/27 03:20:16;;;;;;;1999.90;999.90;;;15.30;99.90;;;;;;5028985;28;20068;-77
2023/09/27 03:22:42;;;;;;;1999.90;999.90;;;15.30;99.90;;;;;;5029329;28;20029;-76
2023/09/27 03:25:09;;;;;;;1999.90;999.90;;;15.30;99.90;;;;;;5028639;28;20144;-70
2023/09/27 03:27:36;;;;;;;1999.90;999.90;;;15.30;99.90;;;;;;5028734;28;20025;-77
2023/09/27 03:30:03;;;;;;;1999.90;999.90;;;15.30;99.90;;;;;;5012142;28;20025;-77
2023/09/27 03:32:29;;;;;;;1999.90;999.90;;;15.30;99.90;;;;;;5008919;28;20087;-76
2023/09/27 03:34:54;;;;;;;1999.90;999.90;;;15.20;99.90;;;;;;5011612;28;20825;-77
2023/09/27 03:37:20;;;;;;;1999.90;999.90;;;15.20;99.90;;;;;;5025382;28;20832;-70
2023/09/27 03:39:46;;;;;;;1999.90;999.90;;;15.20;99.90;;;;;;5028545;28;20068;-77
2023/09/27 03:42:12;;;;;;;1999.90;999.90;;;15.10;99.90;;;;;;5029663;28;20175;-77
2023/09/27 03:44:38;;;;;;;1999.90;999.90;;;15.10;99.90;;;;;;5028863;28;20059;-70
2023/09/27 03:47:04;;;;;;;1999.90;999.90;;;15.20;99.90;;;;;;5028137;28;20116;-76
2023/09/27 03:49:29;;;;;;;1999.90;999.90;;;15.30;99.90;;;;;;5028881;28;20099;-77
2023/09/27 03:51:55;;;;;;;1999.90;999.90;;;15.40;99.90;;;;;;5027613;28;20060;-77
2023/09/27 03:54:22;;;;;;;1999.90;999.90;;;15.40;99.90;;;;;;5029185;28;20138;-77
2023/09/27 03:56:47;;;;;;;1999.90;999.90;;;15.50;99.90;;;;;;5028040;28;20036;-70
2023/09/27 03:59:13;;;;;;;1999.90;999.90;;;15.60;99.90;;;;;;5027884;28;20060;-77
2023/09/27 04:01:39;;;;;;;1999.90;999.90;;;15.60;99.90;;;;;;5027530;28;20025;-77
2023/09/27 04:04:05;;;;;;;1999.90;999.90;;;15.60;99.90;;;;;;5028951;28;20063;-70
2023/09/27 04:06:31;;;;;;;1999.90;999.90;;;15.70;99.90;;;;;;5027798;28;20108;-77
2023/09/27 04:08:56;;;;;;;1999.90;999.90;;;15.60;99.90;;;;;;5027631;28;20060;-77
2023/09/27 04:11:22;;;;;;;1999.90;999.90;;;15.50;99.90;;;;;;5027559;28;20031;-77
2023/09/27 04:13:48;;;;;;;1999.90;999.90;;;15.50;99.90;;;;;;5029013;28;20031;-77
2023/09/27 04:16:14;;;;;;;1999.90;999.90;;;15.50;99.90;;;;;;5027034;28;20040;-77
2023/09/27 04:18:40;;;;;;;1999.90;999.90;;;15.40;99.90;;;;;;5015716;28;20856;-69
2023/09/27 04:21:09;;;;;;;1999.90;999.90;;;15.40;99.90;;;;;;5025159;28;20140;-70
2023/09/27 04:23:36;;;;;;;1999.90;999.90;;;15.40;99.90;;;;;;5026637;28;20021;-78
2023/09/27 04:26:05;;;;;;;1999.90;999.90;;;15.40;99.90;;;;;;5027436;28;20064;-77
2023/09/27 04:28:32;;;;;;;1999.90;999.90;;;15.40;99.90;;;;;;5024227;28;20022;-70
2023/09/27 04:30:58;;;;;;;1999.90;999.90;;;15.40;99.90;;;;;;5007556;28;20025;-70
2023/09/27 04:33:23;;;;;;;1999.90;999.90;;;15.40;99.90;;;;;;5010388;28;20809;-77
2023/09/27 04:35:49;;;;;;;1999.90;999.90;;;15.30;99.90;;;;;;5013949;28;20067;-77
2023/09/27 04:38:16;;;;;;;1999.90;999.90;;;15.20;99.90;;;;;;5027707;28;20079;-77
2023/09/27 04:40:41;;;;;;;1999.90;999.90;;;15.20;99.90;;;;;;5027864;28;20909;-76
2023/09/27 04:43:07;;;;;;;1999.90;999.90;;;15.20;99.90;;;;;;5027991;28;20029;-70
2023/09/27 04:45:33;;;;;;;1999.90;999.90;;;15.20;99.90;;;;;;5027808;28;20132;-70
2023/09/27 04:48:00;;;;;;;1999.90;999.90;;;15.20;99.90;;;;;;5027121;28;20036;-77
2023/09/27 04:50:25;;;;;;;1999.90;999.90;;;15.20;99.90;;;;;;5027638;28;20048;-77
2023/09/27 04:52:51;;;;;;;1999.90;999.90;;;15.30;99.90;;;;;;5028938;28;20025;-70
2023/09/27 04:55:17;;;;;;;1999.90;999.90;;;15.30;99.90;;;;;;5028254;28;20039;-70
2023/09/27 04:57:43;;;;;;;1999.90;999.90;;;15.50;99.90;;;;;;5026396;28;20040;-70
2023/09/27 05:00:18;;;;;;;1999.90;999.90;;;15.60;99.90;;;;;;5026061;28;20917;-77
2023/09/27 05:02:45;;;;;;;1999.90;999.90;;;15.70;99.90;;;;;;5027649;28;20059;-70
2023/09/27 05:05:11;;;;;;;1999.90;999.90;;;15.70;99.90;;;;;;5031217;28;20028;-77
2023/09/27 05:07:36;;;;;;;1999.90;999.90;;;15.50;99.90;;;;;;5030249;28;20138;-70
2023/09/27 05:10:02;;;;;;;1999.90;999.90;;;15.40;99.90;;;;;;5030660;28;20868;-69
2023/09/27 05:12:28;;;;;;;1999.90;999.90;;;15.30;99.90;;;;;;5030735;28;20079;-77
2023/09/27 05:14:53;;;;;;;1999.90;999.90;;;15.40;99.90;;;;;;5032081;28;20788;-70
2023/09/27 05:17:19;;;;;;;1999.90;999.90;;;15.40;99.90;;;;;;5030747;28;20029;-77
2023/09/27 05:19:45;;;;;;;1999.90;999.90;;;15.40;99.90;;;;;;5031694;28;20264;-77
2023/09/27 05:22:12;;;;;;;1999.90;999.90;;;15.40;99.90;;;;;;5030774;28;20036;-70
2023/09/27 05:24:38;;;;;;;1999.90;999.90;;;15.50;99.90;;;;;;5031804;28;20044;-70
2023/09/27 05:27:08;;;;;;;1999.90;999.90;;;15.70;99.90;;;;;;5030742;28;20092;-70
2023/09/27 05:29:34;;;;;;;1999.90;999.90;;;15.70;99.90;;;;;;5018102;28;20029;-70
2023/09/27 05:32:00;;;;;;;1999.90;999.90;;;15.70;99.90;;;;;;5024531;28;20817;-76
2023/09/27 05:34:25;;;;;;;1999.90;999.90;;;15.80;99.90;;;;;;5025032;28;20110;-69
2023/09/27 05:36:51;;;;;;;1999.90;999.90;;;15.90;99.90;;;;;;5027097;28;20039;-70
2023/09/27 05:39:16;;;;;;;1999.90;999.90;;;15.90;99.90;;;;;;5029034;28;20036;-70
2023/09/27 05:41:42;;;;;;;1999.90;999.90;;;15.90;99.90;;;;;;5023743;28;20025;-76
2023/09/27 05:44:08;;;;;;;1999.90;999.90;;;15.90;99.90;;;;;;5011688;28;20359;-69
2023/09/27 05:46:33;;;;;;;1999.90;999.90;;;15.90;99.90;;;;;;5027393;28;20590;-70
2023/09/27 05:49:01;;;;;;;1999.90;999.90;;;15.90;99.90;;;;;;5018922;28;20028;-77
2023/09/27 05:51:30;;;;;;;1999.90;999.90;;;15.90;99.90;;;;;;5026759;28;20473;-70
2023/09/27 05:53:56;;;;;;;1999.90;999.90;;;15.90;99.90;;;;;;5029284;28;20040;-70
2023/09/27 05:56:21;;;;;;;1999.90;999.90;;;15.90;99.90;;;;;;5028067;28;20025;-76
2023/09/27 05:58:47;;;;;;;1999.90;999.90;;;15.80;99.90;;;;;;5028157;28;20142;-77
2023/09/27 06:01:13;;;;;;;1999.90;999.90;;;15.80;99.90;;;;;;5028082;28;20356;-69
2023/09/27 06:03:38;;;;;;;1999.90;999.90;;;15.80;99.90;;;;;;5028005;28;20453;-77
2023/09/27 06:06:05;;;;;;;1999.90;999.90;;;15.80;99.90;;;;;;5026162;28;20028;-70
2023/09/27 06:08:30;;;;;;;1999.90;999.90;;;15.70;99.90;;;;;;5025917;28;20057;-77
2023/09/27 06:10:56;;;;;;;1999.90;999.90;;;15.70;99.90;;;;;;5027321;28;20059;-77
2023/09/27 06:13:23;;;;;;;1999.90;999.90;;;15.70;99.90;;;;;;5022819;28;20052;-69
2023/09/27 06:15:49;;;;;;;1999.90;999.90;;;15.70;99.90;;;;;;5026993;28;20033;-77
2023/09/27 06:18:15;;;;;;;1999.90;999.90;;;15.70;99.90;;;;;;5028397;28;20029;-77
2023/09/27 06:20:40;;;;;;;1999.90;999.90;;;15.70;99.90;;;;;;5028005;28;20135;-77
2023/09/27 06:23:06;;;;;;;1999.90;999.90;;;15.70;99.90;;;;;;5028341;28;20055;-70
2023/09/27 06:25:34;;;;;;;1999.90;999.90;;;15.70;99.90;;;;;;5027339;28;20057;-69
2023/09/27 06:28:00;;;;;;;1999.90;999.90;;;15.70;99.90;;;;;;5025514;28;20031;-69
2023/09/27 06:30:26;;;;;;;1999.90;999.90;;;15.80;99.90;;;;;;5015901;28;20856;-77
2023/09/27 06:32:52;;;;;;;1999.90;999.90;;;15.90;99.90;;;;;;5022465;28;20568;-76
2023/09/27 06:35:18;;;;;;;1999.90;999.90;;;15.90;99.90;;;;;;5021630;28;20107;-69
2023/09/27 06:37:48;;;;;;;1999.90;999.90;;;15.90;99.90;;;;;;5026333;28;20450;-77
2023/09/27 06:40:22;;;;;;;1999.90;999.90;;;16.00;99.90;;;;;;5022733;28;20446;-77
2023/09/27 06:42:48;;;;;;;1999.90;999.90;;;16.10;99.90;;;;;;5022333;28;20033;-70
2023/09/27 06:45:15;;;;;;;1999.90;999.90;;;16.10;99.90;;;;;;5024763;28;20068;-77
2023/09/27 06:47:42;;;;;;;1999.90;999.90;;;16.20;99.90;;;;;;5024780;28;20029;-77
2023/09/27 06:50:08;;;;;;;1999.90;999.90;;;16.30;99.90;;;;;;5022527;28;20788;-77
2023/09/27 06:52:34;;;;;;;1999.90;999.90;;;16.40;99.90;;;;;;5024878;28;20129;-70
2023/09/27 06:55:01;;;;;;;1999.90;999.90;;;16.50;99.90;;;;;;5025144;28;20035;-69
2023/09/27 06:57:26;;;;;;;1999.90;999.90;;;16.60;99.90;;;;;;5024747;28;20083;-77
2023/09/27 06:59:52;;;;;;;1999.90;999.90;;;16.60;99.90;;;;;;5025483;28;20143;-70
2023/09/27 07:02:18;;;;;;;1999.90;999.90;;;16.70;99.90;;;;;;5021567;28;20479;-70
2023/09/27 07:04:43;;;;;;;1999.90;999.90;;;16.70;99.90;;;;;;5024502;28;20573;-76
2023/09/27 07:07:10;;;;;;;1999.90;999.90;;;16.70;99.90;;;;;;5020024;28;20347;-70
2023/09/27 07:09:35;;;;;;;1999.90;999.90;;;16.70;99.90;;;;;;5012352;28;20621;-76
2023/09/27 07:12:02;;;;;;;1999.90;999.90;;;16.70;99.90;;;;;;5019070;28;20502;-76
2023/09/27 07:14:28;;;;;;;1999.90;999.90;;;16.70;99.90;;;;;;5020047;28;20390;-77
2023/09/27 07:16:53;;;;;;;1999.90;999.90;;;16.70;99.90;;;;;;5024142;28;20471;-77
2023/09/27 07:19:19;;;;;;;1999.90;999.90;;;16.80;99.90;;;;;;5024895;28;20128;-70
2023/09/27 07:21:45;;;;;;;1999.90;999.90;;;16.80;99.90;;;;;;5021102;28;20026;-70
2023/09/27 07:24:11;;;;;;;1999.90;999.90;;;17.00;99.90;;;;;;5022870;28;20033;-77
2023/09/27 07:26:41;;;;;;;1999.90;999.90;;;17.10;99.90;;;;;;5023742;28;20031;-72
2023/09/27 07:29:07;;;;;;;1999.90;999.90;;;17.20;99.90;;;;;;5024205;28;20140;-76
2023/09/27 07:31:33;;;;;;;1999.90;999.90;;;17.50;99.90;;;;;;5022898;28;20373;-71
2023/09/27 07:33:59;;;;;;;1999.90;999.90;;;17.70;99.90;;;;;;5021086;28;20040;-77
2023/09/27 07:36:24;;;;;;;1999.90;999.90;;;18.60;99.90;;;;;;5021188;28;20786;-71
2023/09/27 07:38:57;;;;;;;1999.90;999.90;;;18.70;99.90;;;;;;5021455;28;20071;-77
2023/09/27 07:41:24;;;;;;;1999.90;999.90;;;18.60;99.90;;;;;;5022852;28;20068;-77
2023/09/27 07:43:50;;;;;;;1999.90;999.90;;;18.70;99.90;;;;;;5019025;28;20071;-71
2023/09/27 07:46:17;;;;;;;1999.90;999.90;;;18.70;99.90;;;;;;5021229;28;20136;-71
2023/09/27 07:48:44;;;;;;;1999.90;999.90;;;18.90;99.90;;;;;;5022851;28;20032;-77
2023/09/27 07:51:19;;;;;;;1999.90;999.90;;;19.00;99.90;;;;;;5016317;28;20358;-75
2023/09/27 07:53:48;;;;;;;1999.90;999.90;;;19.10;99.90;;;;;;5012696;28;20474;-77
2023/09/27 07:56:26;;;;;;;1999.90;999.90;;;19.30;99.90;;;;;;5019503;28;20046;-77
2023/09/27 07:58:53;;;;;;;1999.90;999.90;;;19.70;99.90;;;;;;5014235;28;20025;-71
2023/09/27 08:01:22;;;;;;;1999.90;999.90;;;19.70;99.90;;;;;;5019445;28;20029;-77
2023/09/27 08:04:00;;;;;;;1999.90;999.90;;;19.30;99.90;;;;;;5020374;28;20055;-77
2023/09/27 08:06:26;;;;;;;1999.90;999.90;;;19.10;99.90;;;;;;5012298;28;20079;-76
2023/09/27 08:08:52;;;;;;;1999.90;999.90;;;19.00;99.90;;;;;;5026043;28;20484;-76
2023/09/27 08:11:18;;;;;;;1999.90;999.90;;;18.90;99.90;;;;;;5023378;28;20548;-73
2023/09/27 08:13:44;;;;;;;1999.90;999.90;;;19.00;99.90;;;;;;5017843;28;20450;-74
2023/09/27 08:16:10;;;;;;;1999.90;999.90;;;19.10;99.90;;;;;;5009716;28;20034;-77
2023/09/27 08:18:37;;;;;;;1999.90;999.90;;;19.80;99.90;;;;;;5011229;28;20435;-79
2023/09/27 08:21:03;;;;;;;1999.90;999.90;;;19.70;99.90;;;;;;5022284;28;20555;-78
2023/09/27 08:23:29;;;;;;;1999.90;999.90;;;19.70;99.90;;;;;;5021360;28;20110;-71
2023/09/27 08:25:55;;;;;;;1999.90;999.90;;;20.20;99.90;;;;;;5021026;28;20045;-77
2023/09/27 08:28:21;;;;;;;1999.90;999.90;;;20.60;99.90;;;;;;5022329;28;20036;-77
2023/09/27 08:30:48;;;;;;;1999.90;999.90;;;20.70;99.90;;;;;;5023323;28;20032;-72
2023/09/27 08:33:14;;;;;;;1999.90;999.90;;;21.10;99.90;;;;;;5021202;28;20147;-77
2023/09/27 08:35:40;;;;;;;1999.90;999.90;;;21.70;99.90;;;;;;5022198;28;20036;-71
2023/09/27 08:38:05;;;;;;;1999.90;999.90;;;22.00;99.90;;;;;;5022449;28;20079;-77
2023/09/27 08:40:31;;;;;;;1999.90;999.90;;;21.90;99.90;;;;;;5022897;28;20138;-77
2023/09/27 08:42:59;;;;;;;1999.90;999.90;;;21.50;99.90;;;;;;5022451;28;20028;-73
2023/09/27 08:45:26;;;;;;;1999.90;999.90;;;21.00;99.90;;;;;;5021342;28;20029;-77
2023/09/27 08:47:54;;;;;;;1999.90;999.90;;;20.50;99.90;;;;;;5022697;28;20423;-77
2023/09/27 08:50:20;;;;;;;1999.90;999.90;;;20.30;99.90;;;;;;5022155;28;20024;-71
2023/09/27 08:52:50;;;;;;;1999.90;999.90;;;20.20;99.90;;;;;;5014065;28;20526;-76
2023/09/27 08:55:17;;;;;;;1999.90;999.90;;;20.20;99.90;;;;;;5023279;28;20109;-76
2023/09/27 08:57:46;;;;;;;1999.90;999.90;;;20.10;99.90;;;;;;5024036;28;20345;-76
2023/09/27 09:00:13;;;;;;;1999.90;999.90;;;20.10;99.90;;;;;;5026532;28;20029;-78
2023/09/27 09:02:41;;;;;;;1999.90;999.90;;;20.20;99.90;;;;;;5022104;28;20068;-70
2023/09/27 09:05:10;;;;;;;1999.90;999.90;;;20.20;99.90;;;;;;5023030;28;20048;-71
2023/09/27 09:07:40;;;;;;;1999.90;999.90;;;20.30;99.90;;;;;;5022361;28;20029;-75
2023/09/27 09:10:11;;;;;;;1999.90;999.90;;;20.50;99.90;;;;;;5023153;28;20068;-75
2023/09/27 09:12:38;;;;;;;1999.90;999.90;;;20.80;99.90;;;;;;5022835;28;20040;-77
2023/09/27 09:15:05;;;;;;;1999.90;999.90;;;20.90;99.90;;;;;;5028423;28;20037;-75
2023/09/27 09:17:37;;;;;;;1999.90;999.90;;;21.00;99.90;;;;;;5019402;28;20346;-72
2023/09/27 09:20:21;;;;;;;1999.90;999.90;;;21.20;99.90;;;;;;5022619;28;20029;-77
2023/09/27 09:22:50;;;;;;;1999.90;999.90;;;21.30;99.90;;;;;;5023085;28;20467;-71
2023/09/27 09:25:15;;;;;;;1999.90;999.90;;;21.60;99.90;;;;;;5022578;28;20071;-78
2023/09/27 09:27:41;;;;;;;1999.90;999.90;;;21.80;99.90;;;;;;5022609;28;20438;-71
2023/09/27 09:30:11;;;;;;;1999.90;999.90;;;22.10;99.90;;;;;;5020118;28;20490;-71
2023/09/27 09:32:49;;;;;;;1999.90;999.90;;;22.30;99.90;;;;;;5022689;28;20037;-71
2023/09/27 09:35:34;;;;;;;1999.90;999.90;;;22.60;99.90;;;;;;5020941;28;20127;-77
2023/09/27 09:38:01;;;;;;;1999.90;999.90;;;22.60;99.90;;;;;;5022872;28;20037;-76
2023/09/27 09:40:27;;;;;;;1999.90;999.90;;;22.40;99.90;;;;;;5017597;28;20037;-77
2023/09/27 09:42:53;;;;;;;1999.90;999.90;;;22.70;99.90;;;;;;5022352;28;20436;-71
2023/09/27 09:45:20;;;;;;;1999.90;999.90;;;22.70;99.90;;;;;;5023033;28;20040;-77
2023/09/27 09:47:46;;;;;;;1999.90;999.90;;;22.90;99.90;;;;;;5019604;28;20045;-70
2023/09/27 09:50:16;;;;;;;1999.90;999.90;;;22.70;99.90;;;;;;5025324;28;20140;-77
2023/09/27 09:52:57;;;;;;;1999.90;999.90;;;22.70;99.90;;;;;;5026485;28;20086;-72
2023/09/27 09:55:24;;;;;;;1999.90;999.90;;;22.80;99.90;;;;;;5025573;28;20396;-71
2023/09/27 09:57:56;;;;;;;1999.90;999.90;;;22.90;99.90;;;;;;5026258;28;20036;-77
2023/09/27 10:00:30;;;;;;;1999.90;999.90;;;23.10;99.90;;;;;;5025488;28;20106;-70
2023/09/27 10:03:04;;;;;;;1999.90;999.90;;;23.10;99.90;;;;;;5023548;28;20591;-77
2023/09/27 10:05:39;;;;;;;1999.90;999.90;;;23.20;99.90;;;;;;5026356;28;20301;-70
2023/09/27 10:08:08;;;;;;;1999.90;999.90;;;23.20;99.90;;;;;;5024706;28;20833;-71
2023/09/27 10:10:37;;;;;;;1999.90;999.90;;;23.10;99.90;;;;;;5025239;28;20136;-76
2023/09/27 10:13:06;;;;;;;1999.90;999.90;;;23.50;99.90;;;;;;5016163;28;20061;-77
2023/09/27 10:15:33;;;;;;;1999.90;999.90;;;23.70;99.90;;;;;;5022218;28;20021;-76
2023/09/27 10:18:21;;;;;;;1999.90;999.90;;;23.60;99.90;;;;;;5020129;28;20033;-76
2023/09/27 10:21:05;;;;;;;1999.90;999.90;;;23.60;99.90;;;;;;5022032;28;20588;-70
2023/09/27 10:23:36;;;;;;;1999.90;999.90;;;23.70;99.90;;;;;;5020288;28;20032;-76
2023/09/27 10:26:18;;;;;;;1999.90;999.90;;;23.90;99.90;;;;;;5010649;28;20041;-77
2023/09/27 10:29:15;;;;;;;1999.90;999.90;;;24.00;99.90;;;;;;5017288;28;20064;-76
2023/09/27 10:31:56;;;;;;;1999.90;999.90;;;24.10;99.90;;;;;;5008141;28;20147;-77
2023/09/27 10:34:34;;;;;;;1999.90;999.90;;;24.40;99.90;;;;;;5023100;28;20828;-77
2023/09/27 10:37:02;;;;;;;1999.90;999.90;;;24.60;99.90;;;;;;5015097;28;20026;-77
2023/09/27 10:39:27;;;;;;;1999.90;999.90;;;24.60;99.90;;;;;;5019210;28;20287;-76
2023/09/27 10:41:53;;;;;;;1999.90;999.90;;;24.60;99.90;;;;;;5022194;28;20427;-77
2023/09/27 10:44:29;;;;;;;1999.90;999.90;;;24.80;99.90;;;;;;5023123;28;20191;-77
2023/09/27 10:46:55;;;;;;;1999.90;999.90;;;25.00;99.90;;;;;;5022989;28;20013;-72
2023/09/27 10:49:22;;;;;;;1999.90;999.90;;;25.10;99.90;;;;;;5026249;28;20044;-77
2023/09/27 10:51:48;;;;;;;1999.90;999.90;;;25.30;99.90;;;;;;5026009;28;20457;-77
2023/09/27 10:54:14;;;;;;;1999.90;999.90;;;25.40;99.90;;;;;;5021625;28;20393;-71
2023/09/27 10:56:44;;;;;;;1999.90;999.90;;;25.40;99.90;;;;;;5027395;28;20032;-77
2023/09/27 10:59:10;;;;;;;1999.90;999.90;;;25.60;99.90;;;;;;5023562;28;20681;-71
2023/09/27 11:01:43;;;;;;;1999.90;999.90;;;25.40;99.90;;;;;;5027031;28;20072;-77
2023/09/27 11:04:12;;;;;;;1999.90;999.90;;;25.40;99.90;;;;;;5026128;28;20031;-77
2023/09/27 11:06:38;;;;;;;1999.90;999.90;;;25.60;99.90;;;;;;5026931;28;20742;-78
2023/09/27 11:09:08;;;;;;;1999.90;999.90;;;25.70;99.90;;;;;;5023125;28;20555;-77
2023/09/27 11:11:35;;;;;;;1999.90;999.90;;;25.70;99.90;;;;;;5013125;28;20366;-70
2023/09/27 11:14:00;;;;;;;1999.90;999.90;;;25.60;99.90;;;;;;5012764;28;20026;-71
2023/09/27 11:16:26;;;;;;;1999.90;999.90;;;25.80;99.90;;;;;;5023223;28;20032;-71
2023/09/27 11:18:56;;;;;;;1999.90;999.90;;;25.80;99.90;;;;;;5018518;28;20148;-77
2023/09/27 11:21:24;;;;;;;1999.90;999.90;;;25.70;99.90;;;;;;5019467;28;20478;-71
2023/09/27 11:24:06;;;;;;;1999.90;999.90;;;25.90;99.90;;;;;;5022085;28;20366;-78
2023/09/27 11:26:33;;;;;;;1999.90;999.90;;;26.00;99.90;;;;;;5024931;28;20033;-77
2023/09/27 11:29:03;;;;;;;1999.90;999.90;;;26.10;99.90;;;;;;5024261;28;20342;-77
2023/09/27 11:31:31;;;;;;;1999.90;999.90;;;26.10;99.90;;;;;;5026510;28;20124;-77
2023/09/27 11:34:12;;;;;;;1999.90;999.90;;;26.10;99.90;;;;;;5024485;28;20118;-77
2023/09/27 11:36:54;;;;;;;1999.90;999.90;;;26.10;99.90;;;;;;5025658;28;20508;-76
2023/09/27 11:39:26;;;;;;;1999.90;999.90;;;26.00;99.90;;;;;;5021934;28;20033;-76
2023/09/27 11:41:59;;;;;;;1999.90;999.90;;;26.00;99.90;;;;;;5024866;28;20043;-76
2023/09/27 11:44:27;;;;;;;1999.90;999.90;;;26.20;99.90;;;;;;5024862;28;20029;-77
2023/09/27 11:47:06;;;;;;;1999.90;999.90;;;26.40;99.90;;;;;;5024556;28;20347;-76
2023/09/27 11:49:32;;;;;;;1999.90;999.90;;;26.60;99.90;;;;;;5023839;28;20068;-76
2023/09/27 11:51:58;;;;;;;1999.90;999.90;;;26.70;99.90;;;;;;5015121;28;20036;-78
2023/09/27 11:54:25;;;;;;;1999.90;999.90;;;27.00;99.90;;;;;;5013833;28;20107;-71
2023/09/27 11:56:53;;;;;;;1999.90;999.90;;;26.90;99.90;;;;;;5017028;28;20735;-71
2023/09/27 11:59:19;;;;;;;1999.90;999.90;;;27.00;99.90;;;;;;5025154;28;20109;-77
2023/09/27 12:01:44;;;;;;;1999.90;999.90;;;27.20;99.90;;;;;;5019533;28;20789;-77